Saturday, November 17, 2018, 2:10 AM EST
Back to Local

KDAW, Skyhaven Airport

Location: Rochester, NH, United States Lat: 43.283
Local Time: 2:10 AM EST ( 7:10 GMT) Lon: -70.917
Time Zone: US/Eastern Elev: 321 ft

Show me the last for .
Show Decoded

2018-11-17 01:51 METAR KDAW 170651Z AUTO 00000KT 10SM OVC050 M01/M02 A2975 RMK AO2 SLP076 I1000
                 T10111017 =
2018-11-17 00:51 METAR KDAW 170551Z AUTO 00000KT 3SM BR FEW038 SCT055 M03/M04 A2974 RMK AO2
                 SLP072 I1000 I6000 T10331039 10006 21033 53020 =
2018-11-17 00:44 METAR KDAW 170544Z AUTO 00000KT 10SM FEW055 M03/M04 A2974 RMK AO2 T10331039 =
2018-11-17 00:36 METAR KDAW 170536Z AUTO 00000KT 2 1/2SM BR FEW055 M03/M04 A2973 RMK AO2
                 T10281039 =
2018-11-16 23:51 METAR KDAW 170451Z AUTO 00000KT 10SM BKN055 M02/M03 A2971 RMK AO2 SLP063 I1000
                 T10221033 400111033 =
2018-11-16 22:51 METAR KDAW 170351Z AUTO 00000KT 10SM CLR M03/M04 A2969 RMK AO2 SLP057 I1000
                 T10331039 =
2018-11-16 21:51 METAR KDAW 170251Z AUTO 00000KT 10SM CLR M02/M03 A2968 RMK AO2 SLP051 T10221028
                 51015 =
2018-11-16 20:51 METAR KDAW 170151Z AUTO 00000KT 10SM CLR M01/M03 A2967 RMK AO2 SLP047 T10061028
                 =
2018-11-16 19:51 METAR KDAW 170051Z AUTO VRB05KT 10SM FEW110 00/M03 A2966 RMK AO2 SLP044
                 T00001028 =
2018-11-16 18:51 METAR KDAW 162351Z AUTO 29005KT 10SM BKN090 01/M03 A2964 RMK AO2 SNB07E21 SLP036
                 P0000 60000 T00061028 10011 21006 53017 =
2018-11-16 17:51 METAR KDAW 162251Z AUTO VRB04KT 10SM SCT065 BKN080 OVC100 01/M02 A2961 RMK AO2
                 SLP027 T00111022 =
2018-11-16 16:51 METAR KDAW 162151Z AUTO 00000KT 10SM FEW019 SCT025 OVC042 01/M01 A2961 RMK AO2
                 SLP025 T00061011 =
2018-11-16 16:16 METAR KDAW 162116Z AUTO 00000KT 10SM BKN020 BKN029 OVC055 01/M01 A2960 RMK AO2
                 T00111011 =
2018-11-16 15:51 METAR KDAW 162051Z AUTO 32006KT 10SM SCT033 BKN050 OVC060 01/M02 A2958 RMK AO2
                 SLP018 60000 T00061017 53022 =
2018-11-16 14:51 METAR KDAW 161951Z AUTO 33009KT 10SM FEW015 BKN034 OVC050 01/M02 A2953 RMK AO2
                 SNB02E27 SLP002 P0000 T00061022 =
2018-11-16 13:51 METAR KDAW 161851Z AUTO 33016G23KT 10SM OVC025 00/M03 A2952 RMK AO2 PK WND
                 34026/1819 SLP997 T00001033 =
2018-11-16 12:51 METAR KDAW 161751Z AUTO 33014G23KT 10SM OVC021 M01/M03 A2949 RMK AO2 PK WND
                 35028/1708 UPE23 SLP987 P0000 60008 T10061033 11006 21028 55018 =
2018-11-16 11:51 METAR KDAW 161651Z AUTO 36018G28KT 10SM UP OVC020 M01/M04 A2946 RMK AO2 PK WND
                 35028/1646 PRESFR SLP976 P0000 T10111039 =
2018-11-16 10:51 METAR KDAW 161551Z AUTO 35013G24KT 6SM UP BR SCT014 OVC019 M02/M03 A2952 RMK AO2
                 PK WND 02027/1505 UPB38SNE38 SLP998 P0000 T10171033 =
2018-11-16 10:20 METAR KDAW 161520Z AUTO 35017G25KT 3SM -SN BR SCT011 SCT017 OVC023 M02/M04 A2954
                 RMK AO2 PK WND 02027/1505 P0000 T10171039 =
2018-11-16 09:51 METAR KDAW 161451Z AUTO 01013G22KT 1 1/2SM -SN BR SCT009 OVC021 M02/M03 A2954
                 RMK AO2 PRESFR SLP005 P0001 60008 T10221033 58047 =
2018-11-16 09:35 METAR KDAW 161435Z AUTO 01012G20KT 1SM -SN BR FEW008 OVC015 M02/M03 A2957 RMK
                 AO2 P0001 T10221033 =
2018-11-16 09:27 METAR KDAW 161427Z AUTO 01014G19KT 3/4SM -SN BR FEW009 OVC013 M03/M03 A2957 RMK
                 AO2 PRESFR P0001 T10281033 =
2018-11-16 09:02 METAR KDAW 161402Z AUTO 34012G22KT 1/2SM -SN FZFG VV010 M02/M03 A2960 RMK AO2
                 P0001 T10221033 =
2018-11-16 08:51 METAR KDAW 161351Z AUTO 35013G19KT 1/2SM -SN FZFG VV009 M02/M03 A2961 RMK AO2
                 SLP026 P0003 T10221028 =
2018-11-16 08:41 METAR KDAW 161341Z AUTO 35013KT 1/2SM -SN FZFG VV009 M02/M03 A2962 RMK AO2 P0003
                 T10221028 =
2018-11-16 08:07 METAR KDAW 161307Z AUTO 01011KT 1/2SM -SN FZFG FEW006 OVC011 M02/M03 A2962 RMK
                 AO2 P0001 T10221028 =
2018-11-16 07:51 METAR KDAW 161251Z AUTO 01011G16KT 1/2SM -SN FZFG OVC011 M02/M03 A2963 RMK AO2
                 SLP036 P0004 T10221028 =
2018-11-16 07:43 METAR KDAW 161243Z AUTO 01008G17KT 1/2SM -SN FZFG OVC011 M02/M03 A2964 RMK AO2
                 P0004 T10221028 =
2018-11-16 07:05 METAR KDAW 161205Z AUTO 02009KT 1/2SM -SN FZFG BKN007 OVC011 M02/M03 A2967 RMK
                 AO2 P0001 T10221028 =
2018-11-16 06:51 METAR KDAW 161151Z AUTO 02007KT 1 1/4SM -SN BR OVC008 M02/M03 A2968 RMK AO2
                 SLP052 P0004 60038 70057 T10221028 11017 21033 58046 =
2018-11-16 05:51 METAR KDAW 161051Z AUTO 02007KT 1 1/2SM -SN BR OVC005 M02/M03 A2973 RMK AO2
                 SLP069 P0004 T10221028 =
2018-11-16 04:51 METAR KDAW 160951Z AUTO 02006KT 1SM -SN BR OVC006 M02/M03 A2981 RMK AO2 SLP097
                 P0005 T10221028 =
2018-11-16 04:46 METAR KDAW 160946Z AUTO 01006KT 3/4SM -SN BR OVC006 M02/M03 A2982 RMK AO2 P0005
                 =
2018-11-16 03:51 METAR KDAW 160851Z AUTO 02006KT 1SM -SN BR OVC006 M02/M03 A2989 RMK AO2 SLP124
                 P0006 60025 T10221028 58070 =
2018-11-16 03:40 METAR KDAW 160840Z AUTO 03006KT 3/4SM -SN BR OVC006 M02/M03 A2990 RMK AO2 P0005
                 T10221028 =
2018-11-16 02:51 METAR KDAW 160751Z AUTO 03006KT 1SM -SN BR OVC009 M03/M03 A2995 RMK AO2 SLP144
                 P0008 T10281033 =
2018-11-16 02:37 METAR KDAW 160737Z AUTO 02007KT 1SM -SN BR OVC009 M03/M03 A2996 RMK AO2 P0007
                 T10281033 =
2018-11-16 02:13 METAR KDAW 160713Z AUTO 03007KT 1/2SM SN FZFG VV007 M03/M03 A3000 RMK AO2 PRESFR
                 P0005 T10281033 =

Support USWX by starting your Amazon purchase here.